Time;durP1;ratioP1;P1;durP2;ratioP2;P2;SDS_P1;SDS_P2;PMS_P1;PMS_P2;Temp;Humidity;BMP_temperature;BMP_pressure;BME280_temperature;BME280_humidity;BME280_pressure;Samples;Min_cycle;Max_cycle;Signal;HPM_P1;HPM_P2
2023/03/16 00:01:06;;;;;;;42.80;26.60;;;;;;;-0.22;100.00;99166.77;109617;1250;59800;-72
2023/03/16 00:03:33;;;;;;;49.60;27.30;;;;;;;-0.25;100.00;99167.35;109592;1250;64057;-72
2023/03/16 00:05:59;;;;;;;46.30;26.60;;;;;;;-0.29;100.00;99171.95;109565;1250;60005;-72
2023/03/16 00:08:26;;;;;;;42.50;26.90;;;;;;;-0.31;100.00;99172.01;109593;1250;59790;-73
2023/03/16 00:10:52;;;;;;;56.70;30.30;;;;;;;-0.35;100.00;99173.65;109452;1250;66519;-73
2023/03/16 00:13:22;;;;;;;56.90;33.70;;;;;;;-0.39;100.00;99176.36;109629;1250;60733;-73
2023/03/16 00:15:58;;;;;;;52.40;30.90;;;;;;;-0.42;100.00;99178.34;109594;1250;65499;-72
2023/03/16 00:18:27;;;;;;;45.80;27.10;;;;;;;-0.45;100.00;99180.48;109640;1250;59774;-72
2023/03/16 00:21:00;;;;;;;44.00;26.80;;;;;;;-0.48;100.00;99182.98;109629;1250;59734;-73
2023/03/16 00:23:27;;;;;;;48.90;26.10;;;;;;;-0.51;100.00;99183.73;109662;1250;66932;-73
2023/03/16 00:25:59;;;;;;;42.90;25.50;;;;;;;-0.52;100.00;99181.66;109608;1250;61043;-72
2023/03/16 00:28:26;;;;;;;44.20;26.60;;;;;;;-0.53;100.00;99183.94;109628;1250;63789;-72
2023/03/16 00:30:57;;;;;;;41.90;26.40;;;;;;;-0.53;100.00;99187.45;109560;1250;60093;-73
2023/03/16 00:33:25;;;;;;;38.90;24.20;;;;;;;-0.54;100.00;99187.64;108841;1250;1002819;-72
2023/03/16 00:36:00;;;;;;;41.20;25.50;;;;;;;-0.56;100.00;99186.11;109616;1250;66836;-73
2023/03/16 00:38:31;;;;;;;38.50;25.00;;;;;;;-0.57;100.00;99185.25;109643;1250;60251;-72
2023/03/16 00:40:58;;;;;;;39.30;24.20;;;;;;;-0.59;100.00;99188.59;109605;1250;64691;-73
2023/03/16 00:43:26;;;;;;;41.20;24.90;;;;;;;-0.64;100.00;99185.89;109629;1250;60055;-72
2023/03/16 00:46:05;;;;;;;43.60;23.10;;;;;;;-0.70;100.00;99188.27;109670;1250;59664;-72
2023/03/16 00:48:33;;;;;;;47.20;25.90;;;;;;;-0.76;100.00;99191.00;109598;1250;67960;-72
2023/03/16 00:51:02;;;;;;;39.90;24.20;;;;;;;-0.82;100.00;99198.80;109641;1250;59863;-72
2023/03/16 00:53:29;;;;;;;38.50;24.60;;;;;;;-0.86;100.00;99199.02;109605;1250;64738;-72
2023/03/16 00:55:55;;;;;;;37.60;24.50;;;;;;;-0.90;100.00;99197.88;109626;1250;60209;-72
2023/03/16 00:58:23;;;;;;;40.60;25.80;;;;;;;-0.95;100.00;99194.66;109659;1250;59843;-72
2023/03/16 01:00:52;;;;;;;38.70;25.10;;;;;;;-1.01;100.00;99197.54;109644;1250;66559;-72
2023/03/16 01:03:19;;;;;;;36.80;25.30;;;;;;;-1.06;100.00;99200.59;109627;1250;61290;-72
2023/03/16 01:05:46;;;;;;;37.40;24.80;;;;;;;-1.11;100.00;99199.80;109574;1250;64987;-72
2023/03/16 01:08:12;;;;;;;44.40;27.50;;;;;;;-1.16;100.00;99200.59;109646;1250;59745;-73
2023/03/16 01:10:39;;;;;;;42.70;26.80;;;;;;;-1.21;100.00;99202.75;109670;1250;59806;-72
2023/03/16 01:13:23;;;;;;;42.10;28.50;;;;;;;-1.26;100.00;99209.99;109625;1250;65533;-72
2023/03/16 01:16:08;;;;;;;42.20;26.10;;;;;;;-1.33;100.00;99210.78;109457;1250;59915;-72
2023/03/16 01:18:35;;;;;;;43.40;26.90;;;;;;;-1.38;100.00;99214.02;109303;1250;62812;-71
2023/03/16 01:21:04;;;;;;;43.00;26.70;;;;;;;-1.42;100.00;99215.98;109606;1250;59791;-71
2023/03/16 01:23:31;;;;;;;42.40;26.10;;;;;;;-1.45;100.00;99218.83;109627;1250;59835;-71
2023/03/16 01:25:59;;;;;;;48.90;27.80;;;;;;;-1.49;100.00;99216.60;109327;1250;66664;-71
2023/03/16 01:28:28;;;;;;;44.40;27.80;;;;;;;-1.52;100.00;99225.20;109658;1250;60211;-71
2023/03/16 01:30:59;;;;;;;43.30;28.70;;;;;;;-1.57;100.00;99225.08;109660;1250;64072;-71
2023/03/16 01:33:27;;;;;;;49.20;31.00;;;;;;;-1.61;100.00;99222.00;109372;1250;59864;-72
2023/03/16 01:35:56;;;;;;;47.90;30.60;;;;;;;-1.66;100.00;99227.31;108081;1250;1002482;-72
2023/03/16 01:38:23;;;;;;;50.50;30.90;;;;;;;-1.71;100.00;99227.55;109637;1250;66508;-72
2023/03/16 01:40:52;;;;;;;48.90;32.90;;;;;;;-1.76;100.00;99227.09;108815;1250;1002293;-72
2023/03/16 01:43:21;;;;;;;44.60;29.50;;;;;;;-1.81;100.00;99225.42;109593;1250;64687;-72
2023/03/16 01:46:13;;;;;;;49.40;34.00;;;;;;;-1.86;100.00;99231.06;108817;1250;1002445;-72
2023/03/16 01:48:51;;;;;;;47.70;32.50;;;;;;;-1.91;100.00;99237.56;109432;1250;59843;-72
2023/03/16 01:51:43;;;;;;;56.40;34.00;;;;;;;-1.94;100.00;99238.66;109617;1250;67461;-72
2023/03/16 01:54:24;;;;;;;49.30;31.60;;;;;;;-1.99;100.00;99241.32;109674;1250;61297;-72
2023/03/16 01:56:58;;;;;;;51.30;33.00;;;;;;;-2.04;100.00;99245.90;109619;1250;65124;-72
2023/03/16 01:59:30;;;;;;;55.10;34.60;;;;;;;-2.09;100.00;99246.48;109651;1250;59790;-72
2023/03/16 02:01:58;;;;;;;55.00;35.70;;;;;;;-2.08;100.00;99250.66;109618;1250;59711;-72
2023/03/16 02:04:37;;;;;;;57.40;35.40;;;;;;;-2.08;100.00;99251.87;108875;1250;1002731;-72
2023/03/16 02:07:06;;;;;;;56.60;35.10;;;;;;;-2.07;100.00;99251.86;109603;1250;60821;-72
2023/03/16 02:09:37;;;;;;;54.30;33.90;;;;;;;-2.09;100.00;99253.10;109631;1250;65065;-72
2023/03/16 02:12:04;;;;;;;55.30;37.60;;;;;;;-2.13;100.00;99259.59;109538;1250;59867;-72
2023/03/16 02:14:31;;;;;;;48.00;34.10;;;;;;;-2.18;100.00;99261.73;109600;1250;59920;-72
2023/03/16 02:16:58;;;;;;;49.50;33.10;;;;;;;-2.23;100.00;99261.61;109371;1250;67498;-72
2023/03/16 02:19:42;;;;;;;57.20;36.10;;;;;;;-2.28;100.00;99261.84;109667;1250;60728;-72
2023/03/16 02:22:09;;;;;;;59.50;36.90;;;;;;;-2.31;100.00;99262.56;109618;1250;64753;-72
2023/03/16 02:24:37;;;;;;;62.70;37.30;;;;;;;-2.34;100.00;99261.72;109596;1250;60676;-72
2023/03/16 02:27:09;;;;;;;51.90;35.70;;;;;;;-2.37;100.00;99266.98;109643;1250;59913;-72
2023/03/16 02:29:58;;;;;;;57.80;36.70;;;;;;;-2.41;100.00;99269.45;108103;1250;1002826;-72
2023/03/16 02:32:28;;;;;;;51.70;34.90;;;;;;;-2.45;100.00;99267.23;109689;1250;60057;-72
2023/03/16 02:34:55;;;;;;;51.30;34.30;;;;;;;-2.47;100.00;99269.52;109648;1250;64752;-72
2023/03/16 02:37:22;;;;;;;58.90;38.30;;;;;;;-2.51;100.00;99268.50;109540;1250;59757;-72
2023/03/16 02:39:49;;;;;;;62.20;36.70;;;;;;;-2.51;100.00;99272.16;109670;1250;59802;-72
2023/03/16 02:42:20;;;;;;;57.80;35.30;;;;;;;-2.53;100.00;99275.67;109624;1250;66556;-72
2023/03/16 02:44:54;;;;;;;63.60;38.40;;;;;;;-2.57;100.00;99281.98;109656;1250;60690;-72
2023/03/16 02:47:29;;;;;;;57.50;36.00;;;;;;;-2.60;100.00;99291.05;109644;1250;62518;-71
2023/03/16 02:49:55;;;;;;;58.70;37.80;;;;;;;-2.62;100.00;99295.40;108852;1250;1002620;-72
2023/03/16 02:52:22;;;;;;;54.30;35.40;;;;;;;-2.63;100.00;99301.50;109664;1250;59797;-72
2023/03/16 02:54:48;;;;;;;54.60;35.40;;;;;;;-2.65;100.00;99302.92;108898;1250;1002348;-72
2023/03/16 02:57:15;;;;;;;56.00;34.40;;;;;;;-2.67;100.00;99308.14;109639;1250;61061;-71
2023/03/16 02:59:42;;;;;;;52.50;34.10;;;;;;;-2.69;100.00;99314.59;108900;1250;1002923;-72
2023/03/16 03:02:08;;;;;;;54.90;35.70;;;;;;;-2.72;100.00;99319.66;109638;1250;59860;-71
2023/03/16 03:04:35;;;;;;;57.60;36.50;;;;;;;-2.75;100.00;99321.95;108918;1250;1002123;-72
2023/03/16 03:07:03;;;;;;;54.00;36.30;;;;;;;-2.77;100.00;99324.41;109348;1250;59819;-72
2023/03/16 03:09:34;;;;;;;56.20;37.30;;;;;;;-2.80;100.00;99329.64;109605;1250;60830;-72
2023/03/16 03:12:00;;;;;;;60.00;36.60;;;;;;;-2.84;100.00;99334.71;109635;1250;63801;-71
2023/03/16 03:14:27;;;;;;;55.00;36.80;;;;;;;-2.88;100.00;99334.73;109292;1250;59755;-71
2023/03/16 03:16:54;;;;;;;62.50;38.80;;;;;;;-2.90;100.00;99339.45;109641;1250;59831;-72
2023/03/16 03:19:21;;;;;;;66.20;40.10;;;;;;;-2.92;100.00;99343.63;109692;1250;67477;-72
2023/03/16 03:21:49;;;;;;;65.40;41.40;;;;;;;-2.94;100.00;99344.17;108897;1254;1002882;-72
2023/03/16 03:24:16;;;;;;;64.60;38.40;;;;;;;-2.95;100.00;99345.58;109657;1250;64689;-72
2023/03/16 03:26:43;;;;;;;65.80;41.00;;;;;;;-2.98;100.00;99346.63;109563;1250;59801;-72
2023/03/16 03:29:11;;;;;;;61.90;39.90;;;;;;;-3.00;100.00;99348.73;109631;1250;59686;-72
2023/03/16 03:31:37;;;;;;;61.30;39.70;;;;;;;-3.03;100.00;99351.35;108605;1250;1003092;-72
2023/03/16 03:34:05;;;;;;;64.80;38.90;;;;;;;-3.04;100.00;99355.71;109669;1250;60728;-72
2023/03/16 03:36:33;;;;;;;63.60;39.20;;;;;;;-3.06;100.00;99357.29;109657;1250;64662;-72
2023/03/16 03:39:03;;;;;;;67.90;41.80;;;;;;;-3.09;100.00;99357.82;109634;1250;59726;-72
2023/03/16 03:41:31;;;;;;;61.30;39.10;;;;;;;-3.09;100.00;99361.81;109643;1250;59819;-71
2023/03/16 03:43:59;;;;;;;62.00;40.50;;;;;;;-3.10;100.00;99367.39;109654;1250;67775;-72
2023/03/16 03:46:26;;;;;;;59.50;40.10;;;;;;;-3.12;100.00;99366.54;109496;1250;60739;-71
2023/03/16 03:48:53;;;;;;;60.20;39.90;;;;;;;-3.14;100.00;99369.32;108894;1250;1002603;-71
2023/03/16 03:51:20;;;;;;;60.80;40.00;;;;;;;-3.15;100.00;99373.34;108876;1250;1002473;-72
2023/03/16 03:53:47;;;;;;;53.50;37.60;;;;;;;-3.16;100.00;99375.59;109661;1250;59866;-72
2023/03/16 03:56:13;;;;;;;55.10;37.70;;;;;;;-3.18;100.00;99378.02;109701;1250;66470;-72
2023/03/16 03:58:40;;;;;;;57.70;38.30;;;;;;;-3.21;100.00;99379.09;109648;1250;60120;-72
2023/03/16 04:01:06;;;;;;;58.20;38.70;;;;;;;-3.25;100.00;99380.51;109629;1250;64766;-72
2023/03/16 04:03:33;;;;;;;64.10;40.30;;;;;;;-3.27;100.00;99380.35;109610;1250;59839;-72
2023/03/16 04:06:00;;;;;;;61.70;40.10;;;;;;;-3.28;100.00;99384.00;109330;1250;60222;-71
2023/03/16 04:08:26;;;;;;;61.30;40.50;;;;;;;-3.31;100.00;99382.27;109661;1250;67564;-72
2023/03/16 04:10:53;;;;;;;60.30;39.20;;;;;;;-3.33;100.00;99385.41;109621;1250;60761;-72
2023/03/16 04:13:20;;;;;;;60.70;39.70;;;;;;;-3.35;100.00;99386.98;109264;1250;64857;-72
2023/03/16 04:15:46;;;;;;;67.60;44.80;;;;;;;-3.36;100.00;99388.20;109620;1250;60060;-72
2023/03/16 04:18:13;;;;;;;69.30;45.30;;;;;;;-3.34;100.00;99390.80;109647;1250;59788;-71
2023/03/16 04:20:39;;;;;;;62.70;44.20;;;;;;;-3.33;100.00;99393.39;109294;1250;74197;-71
2023/03/16 04:23:06;;;;;;;66.40;43.70;;;;;;;-3.33;100.00;99394.62;109615;1250;60790;-72
2023/03/16 04:25:33;;;;;;;71.00;45.70;;;;;;;-3.35;100.00;99397.40;109644;1250;64735;-72
2023/03/16 04:28:00;;;;;;;71.60;46.80;;;;;;;-3.37;100.00;99394.13;109660;1250;59753;-72
2023/03/16 04:30:27;;;;;;;64.20;43.90;;;;;;;-3.38;100.00;99392.38;108863;1250;1014864;-72
2023/03/16 04:32:55;;;;;;;62.80;41.50;;;;;;;-3.41;100.00;99392.38;109637;1250;68254;-72
2023/03/16 04:35:21;;;;;;;62.80;41.00;;;;;;;-3.44;100.00;99395.72;109598;1250;61059;-72
2023/03/16 04:37:48;;;;;;;62.10;42.40;;;;;;;-3.47;100.00;99396.41;109655;1250;64669;-72
2023/03/16 04:40:15;;;;;;;66.40;44.10;;;;;;;-3.49;100.00;99405.11;109655;1250;59850;-71
2023/03/16 04:42:46;;;;;;;67.00;46.60;;;;;;;-3.50;100.00;99412.40;109631;1250;59841;-72
2023/03/16 04:45:14;;;;;;;72.40;49.40;;;;;;;-3.50;100.00;99410.50;109617;1250;67979;-71
2023/03/16 04:47:41;;;;;;;68.00;47.40;;;;;;;-3.50;100.00;99409.28;109664;1250;61090;-71
2023/03/16 04:50:09;;;;;;;74.70;49.60;;;;;;;-3.50;100.00;99410.14;109646;1250;65026;-72
2023/03/16 04:52:35;;;;;;;77.00;51.30;;;;;;;-3.50;100.00;99411.70;109392;1250;59850;-72
2023/03/16 04:55:03;;;;;;;74.30;50.60;;;;;;;-3.50;100.00;99412.76;109681;1251;59747;-72
2023/03/16 04:57:29;;;;;;;74.10;49.10;;;;;;;-3.51;100.00;99412.57;109674;1250;67612;-71
2023/03/16 04:59:56;;;;;;;77.10;53.80;;;;;;;-3.50;100.00;99417.27;109310;1250;61306;-71
2023/03/16 05:02:23;;;;;;;72.00;47.80;;;;;;;-3.48;100.00;99419.88;109674;1250;64746;-71
2023/03/16 05:04:50;;;;;;;68.30;46.50;;;;;;;-3.44;100.00;99418.81;109638;1250;59751;-71
2023/03/16 05:07:16;;;;;;;72.30;47.80;;;;;;;-3.37;100.00;99412.17;108860;1250;1002216;-71
2023/03/16 05:09:43;;;;;;;70.10;47.80;;;;;;;-3.31;100.00;99417.36;109609;1250;59852;-72
2023/03/16 05:12:10;;;;;;;72.80;47.40;;;;;;;-3.26;100.00;99421.34;109656;1250;59850;-72
2023/03/16 05:14:36;;;;;;;64.90;47.30;;;;;;;-3.19;100.00;99427.22;109657;1250;60069;-72
2023/03/16 05:17:03;;;;;;;74.20;46.20;;;;;;;-3.13;100.00;99428.05;109598;1250;59911;-72
2023/03/16 05:19:30;;;;;;;65.20;44.10;;;;;;;-3.03;100.00;99430.09;109662;1250;59816;-72
2023/03/16 05:21:57;;;;;;;72.40;47.30;;;;;;;-2.87;100.00;99429.83;109638;1250;67166;-73
2023/03/16 05:24:24;;;;;;;73.40;49.70;;;;;;;-2.70;100.00;99426.95;109619;1250;60617;-72
2023/03/16 05:26:51;;;;;;;70.90;50.90;;;;;;;-2.57;100.00;99426.69;109632;1250;64811;-72
2023/03/16 05:29:17;;;;;;;73.40;49.00;;;;;;;-2.46;100.00;99426.27;109673;1250;60036;-72
2023/03/16 05:31:46;;;;;;;73.70;52.10;;;;;;;-2.29;100.00;99431.52;109662;1250;59655;-72
2023/03/16 05:34:13;;;;;;;68.00;49.20;;;;;;;-2.14;100.00;99430.19;109676;1250;67687;-72
2023/03/16 05:36:40;;;;;;;68.80;47.50;;;;;;;-2.03;100.00;99431.47;109669;1250;60685;-72
2023/03/16 05:39:07;;;;;;;69.80;48.70;;;;;;;-2.02;100.00;99434.08;109550;1250;64626;-72
2023/03/16 05:41:35;;;;;;;64.30;47.70;;;;;;;-2.02;100.00;99433.73;109640;1250;59954;-71
2023/03/16 05:44:03;;;;;;;68.50;48.20;;;;;;;-1.89;100.00;99433.45;109634;1250;59807;-71
2023/03/16 05:46:30;;;;;;;70.20;48.00;;;;;;;-1.71;100.00;99432.73;109671;1250;68183;-71
2023/03/16 05:48:56;;;;;;;63.40;47.50;;;;;;;-1.52;100.00;99436.19;109659;1251;59970;-72
2023/03/16 05:51:25;;;;;;;68.00;49.80;;;;;;;-1.39;100.00;99436.56;109649;1250;64796;-71
2023/03/16 05:53:55;;;;;;;77.40;55.90;;;;;;;-1.19;100.00;99439.80;109643;1250;59806;-71
2023/03/16 05:56:23;;;;;;;70.80;51.40;;;;;;;-1.07;100.00;99444.54;109398;1250;59833;-71
2023/03/16 05:58:51;;;;;;;64.50;46.40;;;;;;;-0.97;100.00;99447.90;109652;1250;66796;-72
2023/03/16 06:01:21;;;;;;;62.70;45.40;;;;;;;-0.83;100.00;99452.23;109648;1250;61156;-72
2023/03/16 06:03:50;;;;;;;68.70;45.60;;;;;;;-0.68;100.00;99455.89;109639;1250;64822;-72
2023/03/16 06:06:21;;;;;;;68.50;45.40;;;;;;;-0.57;100.00;99455.22;109639;1250;59760;-72
2023/03/16 06:08:48;;;;;;;71.60;46.60;;;;;;;-0.45;100.00;99455.04;109571;1250;60019;-72
2023/03/16 06:11:15;;;;;;;62.50;45.60;;;;;;;-0.34;100.00;99456.78;109646;1250;67528;-72
2023/03/16 06:13:42;;;;;;;61.60;46.60;;;;;;;-0.23;100.00;99456.61;107377;1250;1002652;-72
2023/03/16 06:16:12;;;;;;;57.90;43.80;;;;;;;-0.13;100.00;99457.67;109649;1250;63829;-72
2023/03/16 06:18:40;;;;;;;62.80;45.00;;;;;;;-0.04;100.00;99458.04;109626;1250;59910;-72
2023/03/16 06:21:07;;;;;;;61.90;41.90;;;;;;;0.06;100.00;99461.02;109643;1250;59969;-72
2023/03/16 06:23:34;;;;;;;56.50;39.10;;;;;;;0.15;100.00;99461.92;109697;1250;66986;-71
2023/03/16 06:26:00;;;;;;;53.20;40.50;;;;;;;0.21;100.00;99462.70;109707;1250;61287;-72
2023/03/16 06:28:27;;;;;;;54.90;40.40;;;;;;;0.26;100.00;99468.39;109388;1250;63696;-71
2023/03/16 06:30:55;;;;;;;48.90;35.50;;;;;;;0.31;100.00;99471.62;109594;1250;59782;-72
2023/03/16 06:33:23;;;;;;;49.80;35.80;;;;;;;0.35;100.00;99474.16;109656;1250;59872;-71
2023/03/16 06:35:50;;;;;;;44.90;31.10;;;;;;;0.40;100.00;99473.90;109665;1251;67836;-71
2023/03/16 06:38:18;;;;;;;45.80;32.80;;;;;;;0.43;100.00;99481.17;109667;1250;60712;-71
2023/03/16 06:40:50;;;;;;;42.50;32.20;;;;;;;0.49;100.00;99483.70;109666;1250;63940;-72
2023/03/16 06:43:16;;;;;;;49.10;36.70;;;;;;;0.59;100.00;99485.96;109606;1250;59742;-71
2023/03/16 06:45:43;;;;;;;50.30;36.30;;;;;;;0.70;100.00;99487.15;109292;1250;59805;-71
2023/03/16 06:48:10;;;;;;;48.70;36.60;;;;;;;0.83;100.00;99488.48;109699;1250;66386;-71
2023/03/16 06:50:36;;;;;;;51.20;36.80;;;;;;;0.94;100.00;99491.41;109686;1250;60823;-71
2023/03/16 06:53:03;;;;;;;51.20;36.70;;;;;;;1.03;100.00;99486.52;109594;1250;65215;-71
2023/03/16 06:55:30;;;;;;;50.60;35.50;;;;;;;1.12;100.00;99485.29;109243;1250;59838;-71
2023/03/16 06:57:56;;;;;;;49.70;35.20;;;;;;;1.21;100.00;99488.23;109647;1250;59919;-71
2023/03/16 07:00:23;;;;;;;44.90;34.70;;;;;;;1.31;100.00;99492.58;109667;1250;66861;-71
2023/03/16 07:02:50;;;;;;;47.90;35.20;;;;;;;1.40;100.00;99497.11;109414;1250;61015;-71
2023/03/16 07:05:17;;;;;;;47.50;35.30;;;;;;;1.46;100.00;99501.88;109666;1250;64775;-71
2023/03/16 07:07:53;;;;;;;50.10;36.30;;;;;;;1.61;100.00;99504.00;109655;1250;59961;-71
2023/03/16 07:10:21;;;;;;;50.10;35.70;;;;;;;1.72;100.00;99504.45;109678;1250;59954;-71
2023/03/16 07:12:50;;;;;;;44.30;33.60;;;;;;;1.67;100.00;99507.90;109638;1250;67953;-71
2023/03/16 07:15:20;;;;;;;39.80;30.30;;;;;;;1.52;100.00;99513.13;109682;1250;60176;-71
2023/03/16 07:17:47;;;;;;;43.30;32.70;;;;;;;1.43;100.00;99514.20;109613;1250;65053;-72
2023/03/16 07:20:14;;;;;;;45.30;31.90;;;;;;;1.41;100.00;99514.60;109661;1250;59763;-72
2023/03/16 07:22:41;;;;;;;44.80;32.90;;;;;;;1.44;100.00;99515.75;109301;1250;59869;-73
2023/03/16 07:25:12;;;;;;;40.70;32.20;;;;;;;1.52;100.00;99516.82;109689;1250;65242;-72
2023/03/16 07:27:42;;;;;;;45.70;33.10;;;;;;;1.60;100.00;99516.11;109658;1250;60751;-72
2023/03/16 07:30:13;;;;;;;37.80;28.90;;;;;;;1.72;100.00;99516.70;108104;1250;1002591;-71
2023/03/16 07:32:45;;;;;;;41.50;30.70;;;;;;;1.81;100.00;99519.49;109353;1250;60145;-72
2023/03/16 07:35:20;;;;;;;40.40;31.80;;;;;;;1.89;100.00;99521.58;109646;1250;59914;-71
2023/03/16 07:37:48;;;;;;;38.20;29.00;;;;;;;2.03;100.00;99524.77;109650;1254;67938;-71
2023/03/16 07:40:19;;;;;;;39.20;30.80;;;;;;;2.14;100.00;99526.58;109624;1250;60202;-71
2023/03/16 07:42:47;;;;;;;35.30;27.30;;;;;;;2.26;100.00;99530.69;109586;1250;65090;-71
2023/03/16 07:45:16;;;;;;;37.20;28.30;;;;;;;2.33;100.00;99533.84;109586;1250;60091;-71
2023/03/16 07:47:50;;;;;;;34.60;27.20;;;;;;;2.40;100.00;99532.45;109131;1251;59862;-71
2023/03/16 07:50:18;;;;;;;37.00;27.50;;;;;;;2.43;100.00;99533.43;109640;1250;67830;-72
2023/03/16 07:52:46;;;;;;;39.20;27.70;;;;;;;2.51;100.00;99534.45;109667;1250;60079;-71
2023/03/16 07:55:14;;;;;;;35.50;26.60;;;;;;;2.60;100.00;99535.27;109530;1251;63493;-71
2023/03/16 07:57:46;;;;;;;34.70;27.50;;;;;;;2.73;100.00;99532.11;109629;1251;59766;-71
2023/03/16 08:00:15;;;;;;;43.10;30.00;;;;;;;2.90;100.00;99529.38;109565;1251;59956;-72
2023/03/16 08:02:43;;;;;;;42.60;30.40;;;;;;;3.07;100.00;99526.11;109627;1253;67915;-72
2023/03/16 08:05:16;;;;;;;37.80;30.00;;;;;;;3.25;100.00;99528.26;109664;1250;59869;-71
2023/03/16 08:07:43;;;;;;;37.90;29.80;;;;;;;3.36;100.00;99531.44;109648;1251;63659;-71
2023/03/16 08:10:10;;;;;;;38.70;27.20;;;;;;;3.35;100.00;99531.64;109616;1250;59727;-71
2023/03/16 08:12:38;;;;;;;34.20;26.70;;;;;;;3.36;100.00;99534.43;109346;1251;60056;-71
2023/03/16 08:15:08;;;;;;;32.60;25.50;;;;;;;3.36;100.00;99536.02;109680;1250;66786;-71
2023/03/16 08:17:40;;;;;;;33.40;26.40;;;;;;;3.46;100.00;99533.42;109669;1250;59899;-71
2023/03/16 08:20:13;;;;;;;37.90;27.00;;;;;;;3.58;100.00;99534.30;109632;1251;72708;-71
2023/03/16 08:22:45;;;;;;;37.50;27.90;;;;;;;3.74;100.00;99529.96;109523;1251;60125;-71
2023/03/16 08:25:13;;;;;;;36.20;27.30;;;;;;;3.93;100.00;99533.23;109681;1251;59826;-71
2023/03/16 08:27:44;;;;;;;34.60;26.30;;;;;;;4.07;100.00;99529.99;109415;1256;65233;-71
2023/03/16 08:30:13;;;;;;;37.70;25.10;;;;;;;4.28;100.00;99528.59;109564;1250;60180;-71
2023/03/16 08:32:41;;;;;;;35.30;26.40;;;;;;;4.49;100.00;99527.54;109458;1251;64164;-71
2023/03/16 08:35:13;;;;;;;30.50;24.20;;;;;;;4.60;100.00;99531.41;109620;1251;59798;-71
2023/03/16 08:37:41;;;;;;;33.40;23.20;;;;;;;4.74;100.00;99533.23;109101;1253;59795;-71
2023/03/16 08:40:34;;;;;;;29.50;23.50;;;;;;;4.83;100.00;99530.63;109597;1250;66500;-72
2023/03/16 08:43:07;;;;;;;27.50;22.20;;;;;;;4.90;100.00;99532.84;109586;1251;59819;-72
2023/03/16 08:45:37;;;;;;;25.60;21.40;;;;;;;5.17;100.00;99532.77;109509;1250;62773;-72
2023/03/16 08:48:06;;;;;;;21.30;16.80;;;;;;;5.43;100.00;99528.45;109523;1254;59888;-72
2023/03/16 08:50:33;;;;;;;21.10;15.10;;;;;;;5.69;99.57;99532.42;109663;1251;59775;-71
2023/03/16 08:53:01;;;;;;;24.30;16.90;;;;;;;5.89;95.40;99535.67;109607;1251;65768;-72
2023/03/16 08:55:28;;;;;;;26.20;19.60;;;;;;;5.85;93.01;99536.39;109665;1255;61118;-72
2023/03/16 08:57:54;;;;;;;26.00;19.20;;;;;;;5.75;94.12;99539.77;109613;1251;64088;-72
2023/03/16 09:00:24;;;;;;;23.00;18.40;;;;;;;5.64;94.48;99541.58;109511;1251;59785;-72
2023/03/16 09:02:51;;;;;;;27.60;18.00;;;;;;;5.42;93.65;99547.19;109631;1251;59834;-72
2023/03/16 09:05:20;;;;;;;21.60;17.40;;;;;;;5.19;93.21;99554.17;109628;1250;67891;-73
2023/03/16 09:07:48;;;;;;;25.70;18.20;;;;;;;5.11;95.27;99557.10;109650;1251;60943;-72
2023/03/16 09:10:31;;;;;;;29.90;22.70;;;;;;;5.13;96.98;99556.15;109615;1250;64062;-72
2023/03/16 09:12:58;;;;;;;30.20;21.80;;;;;;;5.16;97.41;99550.23;109615;1251;59742;-72
2023/03/16 09:15:28;;;;;;;27.00;20.70;;;;;;;5.22;98.30;99550.36;109613;1251;59757;-72
2023/03/16 09:17:56;;;;;;;27.60;20.20;;;;;;;5.33;98.34;99548.91;109567;1255;66874;-73
2023/03/16 09:20:26;;;;;;;28.60;21.60;;;;;;;5.52;98.22;99550.34;109633;1251;59822;-72
2023/03/16 09:22:55;;;;;;;24.90;20.50;;;;;;;5.67;96.11;99551.15;109576;1250;62926;-71
2023/03/16 09:25:25;;;;;;;29.70;20.60;;;;;;;5.82;95.89;99551.83;109592;1251;59796;-71
2023/03/16 09:27:52;;;;;;;22.40;16.40;;;;;;;6.02;95.35;99553.38;109347;1251;60050;-73
2023/03/16 09:30:20;;;;;;;23.20;16.10;;;;;;;6.25;92.85;99554.59;109581;1251;67970;-72
2023/03/16 09:32:47;;;;;;;22.50;15.40;;;;;;;6.40;92.05;99549.94;109684;1250;59873;-71
2023/03/16 09:35:17;;;;;;;19.60;15.30;;;;;;;6.53;91.73;99551.31;109601;1251;64804;-72
2023/03/16 09:37:47;;;;;;;21.10;15.50;;;;;;;6.71;91.12;99548.80;109632;1250;59737;-71
2023/03/16 09:40:27;;;;;;;22.80;17.80;;;;;;;6.85;90.48;99550.54;109333;1250;59854;-72
2023/03/16 09:43:21;;;;;;;23.50;17.60;;;;;;;6.94;89.25;99552.78;109639;1250;67569;-72
2023/03/16 09:45:58;;;;;;;20.70;17.50;;;;;;;7.06;88.72;99546.05;108921;1257;59966;-72
2023/03/16 09:48:31;;;;;;;19.50;14.80;;;;;;;7.33;88.05;99549.98;108977;1257;64086;-72
2023/03/16 09:51:02;;;;;;;26.20;19.60;;;;;;;7.52;87.07;99552.17;108954;1257;60157;-72
2023/03/16 09:53:37;;;;;;;26.00;18.40;;;;;;;7.62;86.24;99554.90;109044;1257;59812;-72
2023/03/16 09:56:18;;;;;;;20.20;15.60;;;;;;;7.68;84.97;99552.48;109015;1257;66620;-72
2023/03/16 09:58:48;;;;;;;17.30;12.50;;;;;;;7.82;83.54;99552.92;108997;1257;60287;-72
2023/03/16 10:01:42;;;;;;;18.40;12.90;;;;;;;7.63;79.23;99554.30;109017;1257;62620;-72
2023/03/16 10:04:33;;;;;;;16.30;12.20;;;;;;;7.07;80.53;99561.20;108955;1257;59860;-72
2023/03/16 10:07:29;;;;;;;14.10;9.50;;;;;;;6.70;80.16;99568.80;109023;1257;59857;-72
2023/03/16 10:10:01;;;;;;;15.80;10.20;;;;;;;6.42;80.96;99573.64;109016;1257;65378;-72
2023/03/16 10:12:34;;;;;;;14.90;10.50;;;;;;;6.40;80.95;99577.64;109014;1257;59843;-72
2023/03/16 10:15:12;;;;;;;15.00;9.30;;;;;;;6.57;81.12;99575.33;109001;1257;64805;-72
2023/03/16 10:17:51;;;;;;;11.40;6.80;;;;;;;6.91;81.73;99567.55;108990;1257;59892;-72
2023/03/16 10:20:25;;;;;;;7.20;4.90;;;;;;;7.15;77.49;99567.59;108917;1257;59852;-73
2023/03/16 10:22:54;;;;;;;9.40;5.30;;;;;;;7.04;76.92;99567.71;109323;1250;65314;-72
2023/03/16 10:25:24;;;;;;;9.40;5.90;;;;;;;6.95;76.93;99569.33;109452;1250;59835;-73
2023/03/16 10:27:51;;;;;;;12.20;6.70;;;;;;;6.85;75.79;99575.21;109580;1250;62970;-72
2023/03/16 10:30:21;;;;;;;9.60;6.90;;;;;;;6.70;74.82;99576.59;109647;1251;59769;-73
2023/03/16 10:32:49;;;;;;;;;;;;;;;6.64;76.19;99577.55;109452;1250;59882;-73
2023/03/16 10:35:37;;;;;;;9.40;4.50;;;;;;;6.65;75.93;99577.84;109437;1250;67056;-73
2023/03/16 10:38:07;;;;;;;10.80;4.80;;;;;;;6.75;76.15;99576.52;109693;1251;59808;-73
2023/03/16 10:40:38;;;;;;;6.50;4.40;;;;;;;7.01;76.52;99575.94;109594;1251;64769;-73
2023/03/16 10:43:15;;;;;;;7.80;4.90;;;;;;;7.46;76.74;99575.94;109584;1250;59750;-73
2023/03/16 10:45:46;;;;;;;8.80;4.30;;;;;;;7.83;76.18;99570.17;109608;1251;59826;-73
2023/03/16 10:48:17;;;;;;;9.20;5.00;;;;;;;7.94;74.23;99573.04;109611;1250;67552;-73
2023/03/16 10:50:56;;;;;;;5.50;3.90;;;;;;;7.82;73.01;99572.86;108747;1250;1151820;-73
2023/03/16 10:53:28;;;;;;;7.90;4.50;;;;;;;7.64;73.28;99574.44;109552;1251;64147;-73
2023/03/16 10:55:58;;;;;;;5.70;3.90;;;;;;;7.60;72.08;99572.66;109634;1250;59878;-73
2023/03/16 10:58:29;;;;;;;8.20;4.90;;;;;;;7.67;72.42;99576.04;109586;1250;59752;-72
2023/03/16 11:00:58;;;;;;;9.40;6.20;;;;;;;7.64;71.07;99574.58;109652;1251;66886;-73
2023/03/16 11:03:31;;;;;;;10.50;6.60;;;;;;;7.64;72.03;99576.17;109627;1251;69116;-73
2023/03/16 11:06:02;;;;;;;8.80;6.50;;;;;;;7.94;72.34;99574.60;109620;1250;63862;-72
2023/03/16 11:08:47;;;;;;;6.60;4.60;;;;;;;8.26;72.25;99566.02;109592;1251;59793;-72
2023/03/16 11:11:32;;;;;;;8.70;5.00;;;;;;;8.48;71.33;99562.11;109634;1251;59691;-72
2023/03/16 11:14:03;;;;;;;8.60;4.20;;;;;;;8.67;69.71;99560.52;109670;1251;66677;-72
2023/03/16 11:16:41;;;;;;;6.40;4.70;;;;;;;8.59;69.89;99559.98;109626;1251;61223;-73
2023/03/16 11:19:22;;;;;;;6.80;4.10;;;;;;;8.43;69.02;99563.80;109581;1251;62729;-72